createdAt,value
2022-08-31T00:10:32.295Z,21.58
2022-08-31T00:25:19.720Z,21.32
2022-08-31T00:40:10.799Z,21.09
2022-08-31T00:55:03.175Z,21.07
2022-08-31T01:09:56.303Z,20.94
2022-08-31T01:24:48.624Z,20.90
2022-08-31T01:39:41.281Z,20.95
2022-08-31T01:54:32.499Z,20.94
2022-08-31T02:09:24.622Z,20.97
2022-08-31T02:24:16.893Z,20.93
2022-08-31T02:39:09.798Z,20.97
2022-08-31T02:54:02.383Z,21.03
2022-08-31T03:23:47.054Z,20.98
2022-08-31T03:38:39.607Z,20.83
2022-08-31T03:53:31.681Z,20.69
2022-08-31T04:08:24.328Z,20.72
2022-08-31T04:23:17.164Z,20.71
2022-08-31T04:38:10.216Z,20.76
2022-08-31T04:53:03.871Z,20.77
2022-08-31T05:07:54.621Z,20.71
2022-08-31T05:22:45.999Z,20.68
2022-08-31T05:37:38.393Z,20.72
2022-08-31T05:52:30.547Z,20.82
2022-08-31T06:07:22.977Z,20.84
2022-08-31T06:22:15.297Z,20.83
2022-08-31T06:37:07.918Z,20.76
2022-08-31T06:52:00.202Z,20.86
2022-08-31T07:06:52.997Z,20.97
2022-08-31T07:21:48.436Z,21.05
2022-08-31T07:37:02.797Z,21.10
2022-08-31T07:52:01.466Z,21.16
2022-08-31T08:06:54.204Z,21.37
2022-08-31T08:21:46.253Z,21.32
2022-08-31T08:36:38.059Z,21.46
2022-08-31T08:51:30.132Z,21.62
2022-08-31T09:06:21.570Z,21.74
2022-08-31T09:21:19.264Z,21.70
2022-08-31T09:36:15.520Z,21.56
2022-08-31T09:51:07.322Z,21.13
2022-08-31T10:05:57.997Z,20.73
2022-08-31T10:20:55.003Z,20.47
2022-08-31T10:35:59.318Z,20.46
2022-08-31T10:51:18.916Z,20.48
2022-08-31T11:06:15.871Z,20.61
2022-08-31T11:21:42.157Z,20.69
2022-08-31T11:36:45.679Z,20.81
2022-08-31T11:51:42.099Z,20.77
2022-08-31T12:06:34.449Z,20.83
2022-08-31T12:21:57.809Z,20.94
2022-08-31T12:36:56.600Z,21.20
2022-08-31T12:51:51.636Z,21.35
2022-08-31T13:06:46.550Z,21.37
2022-08-31T13:21:38.970Z,21.37
2022-08-31T13:36:30.440Z,21.39
2022-08-31T13:51:23.149Z,21.59
2022-08-31T14:06:18.256Z,21.69
2022-08-31T14:21:22.373Z,21.76
2022-08-31T14:36:06.106Z,21.87
2022-08-31T14:50:58.371Z,22.02
2022-08-31T15:05:50.372Z,22.18
2022-08-31T15:20:42.071Z,22.28
2022-08-31T15:35:34.179Z,22.65
2022-08-31T15:50:26.373Z,22.83
2022-08-31T16:05:17.230Z,22.88
2022-08-31T16:20:09.408Z,23.00
2022-08-31T16:35:01.698Z,22.97
2022-08-31T16:49:54.098Z,22.91
2022-08-31T17:04:52.529Z,22.70
2022-08-31T17:19:37.931Z,22.54
2022-08-31T17:34:29.918Z,22.50
2022-08-31T17:49:21.930Z,22.42
2022-08-31T18:04:13.247Z,22.35
2022-08-31T18:19:05.596Z,22.32
2022-08-31T18:34:00.272Z,22.29
2022-08-31T19:18:59.477Z,21.99
2022-08-31T19:33:56.511Z,21.78
2022-08-31T19:48:45.195Z,21.58
2022-08-31T20:03:34.143Z,21.41
2022-08-31T20:48:32.861Z,21.00
2022-08-31T21:03:30.024Z,20.95
2022-08-31T21:18:21.472Z,20.76
2022-08-31T21:33:13.046Z,20.68
2022-08-31T21:48:03.912Z,20.49
2022-08-31T22:02:54.881Z,20.32
2022-08-31T22:18:06.307Z,20.18
2022-08-31T22:32:37.526Z,20.09
2022-08-31T22:47:28.118Z,20.02
2022-08-31T23:02:20.033Z,19.88
2022-08-31T23:17:11.225Z,19.61
2022-08-31T23:32:02.552Z,19.31
2022-08-31T23:46:53.069Z,19.21
